エレバン の空港の天気 - METARとTAF

ズヴァルトノッツ国際空港 ( UDYZ / EVN ) - アルメニア エレバン
飛行場実況気象(Metar)
観測時間05/26 23:00 AMT (05/26 19:00 UTC)
風向・風速北北東 2m/s
視程10km以上
天気現象
なし
気温15℃
湿度67%
気圧1020hPa
METARUDYZ 261900Z 02004KT 9999 NSC 15/09 Q1020 R09/010070 NOSIG
過去の天気等 Google飛行場航空写真 Wunderground天気予報

過去48時間のMETAR

飛行場予報(TAF)
発表時間: 5/26 21:02 AMT (5/26 17:02 UTC)
予報対象時間: 26日22時 AMT ~ 27日22時 AMT
風向・風速不定 3m/s
視程10km以上
なし
26日22時 AMT ~ 27日5時 AMT に一時的に
風向・風速北東 10m/s
TAF UDYZ 261702Z 2618/2718 VRB06KT CAVOK
TEMPO 2618/2701 04020KT